sensor_id;sensor_type;location;lat;lon;timestamp;temperature;humidity
15991;DHT22;8100;50.994;4.538;2023-05-10T00:01:04;13.90;99.90
15991;DHT22;8100;50.994;4.538;2023-05-10T00:03:51;13.10;99.90
15991;DHT22;8100;50.994;4.538;2023-05-10T00:06:38;13.00;99.90
15991;DHT22;8100;50.994;4.538;2023-05-10T00:09:26;13.00;99.90
15991;DHT22;8100;50.994;4.538;2023-05-10T00:12:13;13.40;99.90
15991;DHT22;8100;50.994;4.538;2023-05-10T00:15:02;13.10;99.90
15991;DHT22;8100;50.994;4.538;2023-05-10T00:17:49;13.10;99.90
15991;DHT22;8100;50.994;4.538;2023-05-10T00:20:37;13.70;99.90
15991;DHT22;8100;50.994;4.538;2023-05-10T00:23:24;13.50;99.90
15991;DHT22;8100;50.994;4.538;2023-05-10T00:26:11;13.40;99.90
15991;DHT22;8100;50.994;4.538;2023-05-10T00:28:59;13.10;99.90
15991;DHT22;8100;50.994;4.538;2023-05-10T00:31:47;13.00;99.90
15991;DHT22;8100;50.994;4.538;2023-05-10T00:34:35;13.30;99.90
15991;DHT22;8100;50.994;4.538;2023-05-10T00:37:22;13.40;99.90
15991;DHT22;8100;50.994;4.538;2023-05-10T00:40:10;13.10;99.90
15991;DHT22;8100;50.994;4.538;2023-05-10T00:42:57;12.90;99.90
15991;DHT22;8100;50.994;4.538;2023-05-10T00:45:45;13.10;99.90
15991;DHT22;8100;50.994;4.538;2023-05-10T00:48:34;12.90;99.90
15991;DHT22;8100;50.994;4.538;2023-05-10T00:51:22;13.30;99.90
15991;DHT22;8100;50.994;4.538;2023-05-10T00:54:10;13.00;99.90
15991;DHT22;8100;50.994;4.538;2023-05-10T00:56:58;12.90;99.90
15991;DHT22;8100;50.994;4.538;2023-05-10T00:59:45;13.30;99.90
15991;DHT22;8100;50.994;4.538;2023-05-10T01:02:33;13.10;99.90
15991;DHT22;8100;50.994;4.538;2023-05-10T01:05:22;13.20;99.90
15991;DHT22;8100;50.994;4.538;2023-05-10T01:08:10;13.30;99.90
15991;DHT22;8100;50.994;4.538;2023-05-10T01:10:57;13.10;99.90
15991;DHT22;8100;50.994;4.538;2023-05-10T01:13:50;12.90;99.90
15991;DHT22;8100;50.994;4.538;2023-05-10T01:16:40;13.30;99.90
15991;DHT22;8100;50.994;4.538;2023-05-10T01:19:29;13.30;99.90
15991;DHT22;8100;50.994;4.538;2023-05-10T01:22:39;13.10;99.90
15991;DHT22;8100;50.994;4.538;2023-05-10T01:25:44;13.00;99.90
15991;DHT22;8100;50.994;4.538;2023-05-10T01:29:05;13.00;99.90
15991;DHT22;8100;50.994;4.538;2023-05-10T01:32:16;13.30;99.90
15991;DHT22;8100;50.994;4.538;2023-05-10T01:35:09;13.20;99.90
15991;DHT22;8100;50.994;4.538;2023-05-10T01:38:02;12.90;99.90
15991;DHT22;8100;50.994;4.538;2023-05-10T01:40:57;12.80;99.90
15991;DHT22;8100;50.994;4.538;2023-05-10T01:43:55;12.80;99.90
15991;DHT22;8100;50.994;4.538;2023-05-10T01:46:43;13.30;99.90
15991;DHT22;8100;50.994;4.538;2023-05-10T01:49:37;13.20;99.90
15991;DHT22;8100;50.994;4.538;2023-05-10T01:52:30;12.80;99.90
15991;DHT22;8100;50.994;4.538;2023-05-10T01:55:21;13.30;99.90
15991;DHT22;8100;50.994;4.538;2023-05-10T01:58:10;13.20;99.90
15991;DHT22;8100;50.994;4.538;2023-05-10T02:01:01;13.20;99.90
15991;DHT22;8100;50.994;4.538;2023-05-10T02:03:51;12.90;99.90
15991;DHT22;8100;50.994;4.538;2023-05-10T02:06:41;13.20;99.90
15991;DHT22;8100;50.994;4.538;2023-05-10T02:09:30;13.10;99.90
15991;DHT22;8100;50.994;4.538;2023-05-10T02:12:19;13.00;99.90
15991;DHT22;8100;50.994;4.538;2023-05-10T02:15:08;12.90;99.90
15991;DHT22;8100;50.994;4.538;2023-05-10T02:17:56;13.30;99.90
15991;DHT22;8100;50.994;4.538;2023-05-10T02:20:45;12.80;99.90
15991;DHT22;8100;50.994;4.538;2023-05-10T02:23:36;13.10;99.90
15991;DHT22;8100;50.994;4.538;2023-05-10T02:26:24;12.80;99.90
15991;DHT22;8100;50.994;4.538;2023-05-10T02:29:13;12.90;99.90
15991;DHT22;8100;50.994;4.538;2023-05-10T02:32:01;12.80;99.90
15991;DHT22;8100;50.994;4.538;2023-05-10T02:34:49;13.10;99.90
15991;DHT22;8100;50.994;4.538;2023-05-10T02:37:38;13.30;99.90
15991;DHT22;8100;50.994;4.538;2023-05-10T02:40:28;13.20;99.90
15991;DHT22;8100;50.994;4.538;2023-05-10T02:43:17;13.00;99.90
15991;DHT22;8100;50.994;4.538;2023-05-10T02:46:05;12.90;99.90
15991;DHT22;8100;50.994;4.538;2023-05-10T02:48:52;13.20;99.90
15991;DHT22;8100;50.994;4.538;2023-05-10T02:51:42;13.20;99.90
15991;DHT22;8100;50.994;4.538;2023-05-10T02:54:33;13.20;99.90
15991;DHT22;8100;50.994;4.538;2023-05-10T02:57:28;12.90;99.90
15991;DHT22;8100;50.994;4.538;2023-05-10T03:00:16;13.20;99.90
15991;DHT22;8100;50.994;4.538;2023-05-10T03:03:03;13.00;99.90
15991;DHT22;8100;50.994;4.538;2023-05-10T03:05:51;12.90;99.90
15991;DHT22;8100;50.994;4.538;2023-05-10T03:08:41;12.90;99.90
15991;DHT22;8100;50.994;4.538;2023-05-10T03:11:39;13.20;99.90
15991;DHT22;8100;50.994;4.538;2023-05-10T03:14:42;13.00;99.90
15991;DHT22;8100;50.994;4.538;2023-05-10T03:17:39;12.90;99.90
15991;DHT22;8100;50.994;4.538;2023-05-10T03:20:31;12.90;99.90
15991;DHT22;8100;50.994;4.538;2023-05-10T03:23:25;12.90;99.90
15991;DHT22;8100;50.994;4.538;2023-05-10T03:26:20;13.10;99.90
15991;DHT22;8100;50.994;4.538;2023-05-10T03:29:12;13.10;99.90
15991;DHT22;8100;50.994;4.538;2023-05-10T03:32:01;12.90;99.90
15991;DHT22;8100;50.994;4.538;2023-05-10T03:34:49;13.00;99.90
15991;DHT22;8100;50.994;4.538;2023-05-10T03:37:36;13.00;99.90
15991;DHT22;8100;50.994;4.538;2023-05-10T03:40:24;13.00;99.90
15991;DHT22;8100;50.994;4.538;2023-05-10T03:43:12;12.90;99.90
15991;DHT22;8100;50.994;4.538;2023-05-10T03:46:01;12.90;99.90
15991;DHT22;8100;50.994;4.538;2023-05-10T03:48:50;12.80;99.90
15991;DHT22;8100;50.994;4.538;2023-05-10T03:51:37;12.70;99.90
15991;DHT22;8100;50.994;4.538;2023-05-10T03:54:25;12.70;99.90
15991;DHT22;8100;50.994;4.538;2023-05-10T03:57:12;12.80;99.90
15991;DHT22;8100;50.994;4.538;2023-05-10T03:59:59;12.60;99.90
15991;DHT22;8100;50.994;4.538;2023-05-10T04:02:47;12.60;99.90
15991;DHT22;8100;50.994;4.538;2023-05-10T04:05:35;12.60;99.90
15991;DHT22;8100;50.994;4.538;2023-05-10T04:08:23;12.60;99.90
15991;DHT22;8100;50.994;4.538;2023-05-10T04:11:11;12.60;99.90
15991;DHT22;8100;50.994;4.538;2023-05-10T04:13:58;12.50;99.90
15991;DHT22;8100;50.994;4.538;2023-05-10T04:16:46;12.50;99.90
15991;DHT22;8100;50.994;4.538;2023-05-10T04:19:33;12.40;99.90
15991;DHT22;8100;50.994;4.538;2023-05-10T04:22:22;12.40;99.90
15991;DHT22;8100;50.994;4.538;2023-05-10T04:25:09;12.40;99.90
15991;DHT22;8100;50.994;4.538;2023-05-10T04:27:57;12.50;99.90
15991;DHT22;8100;50.994;4.538;2023-05-10T04:30:45;12.60;99.90
15991;DHT22;8100;50.994;4.538;2023-05-10T04:33:32;12.50;99.90
15991;DHT22;8100;50.994;4.538;2023-05-10T04:36:19;12.40;99.90
15991;DHT22;8100;50.994;4.538;2023-05-10T04:39:08;12.30;99.90
15991;DHT22;8100;50.994;4.538;2023-05-10T04:41:55;12.30;99.90
15991;DHT22;8100;50.994;4.538;2023-05-10T04:44:43;12.60;99.90
15991;DHT22;8100;50.994;4.538;2023-05-10T04:47:30;12.30;99.90
15991;DHT22;8100;50.994;4.538;2023-05-10T04:50:18;12.60;99.90
15991;DHT22;8100;50.994;4.538;2023-05-10T04:53:05;12.40;99.90
15991;DHT22;8100;50.994;4.538;2023-05-10T04:55:54;12.70;99.90
15991;DHT22;8100;50.994;4.538;2023-05-10T04:58:41;12.70;99.90
15991;DHT22;8100;50.994;4.538;2023-05-10T05:01:29;12.70;99.90
15991;DHT22;8100;50.994;4.538;2023-05-10T05:04:16;12.40;99.90
15991;DHT22;8100;50.994;4.538;2023-05-10T05:07:03;12.60;99.90
15991;DHT22;8100;50.994;4.538;2023-05-10T05:09:50;12.40;99.90
15991;DHT22;8100;50.994;4.538;2023-05-10T05:12:39;12.80;99.90
15991;DHT22;8100;50.994;4.538;2023-05-10T05:15:26;12.80;99.90
15991;DHT22;8100;50.994;4.538;2023-05-10T05:18:14;12.50;99.90
15991;DHT22;8100;50.994;4.538;2023-05-10T05:21:01;12.80;99.90
15991;DHT22;8100;50.994;4.538;2023-05-10T05:23:48;12.70;99.90
15991;DHT22;8100;50.994;4.538;2023-05-10T05:26:36;12.90;99.90
15991;DHT22;8100;50.994;4.538;2023-05-10T05:29:24;12.90;99.90
15991;DHT22;8100;50.994;4.538;2023-05-10T05:32:12;13.00;99.90
15991;DHT22;8100;50.994;4.538;2023-05-10T05:34:59;13.10;99.90
15991;DHT22;8100;50.994;4.538;2023-05-10T05:37:46;13.00;99.90
15991;DHT22;8100;50.994;4.538;2023-05-10T05:40:34;13.10;99.90
15991;DHT22;8100;50.994;4.538;2023-05-10T05:43:21;13.10;99.90
15991;DHT22;8100;50.994;4.538;2023-05-10T05:46:10;12.90;99.90
15991;DHT22;8100;50.994;4.538;2023-05-10T05:48:57;13.00;99.90
15991;DHT22;8100;50.994;4.538;2023-05-10T05:51:44;13.00;99.90
15991;DHT22;8100;50.994;4.538;2023-05-10T05:54:32;13.10;99.90
15991;DHT22;8100;50.994;4.538;2023-05-10T05:57:19;13.10;99.90
15991;DHT22;8100;50.994;4.538;2023-05-10T06:00:08;13.20;99.90
15991;DHT22;8100;50.994;4.538;2023-05-10T06:02:57;13.20;99.90
15991;DHT22;8100;50.994;4.538;2023-05-10T06:05:44;13.30;99.90
15991;DHT22;8100;50.994;4.538;2023-05-10T06:08:32;13.40;99.90
15991;DHT22;8100;50.994;4.538;2023-05-10T06:11:19;13.40;99.90
15991;DHT22;8100;50.994;4.538;2023-05-10T06:14:07;13.30;99.90
15991;DHT22;8100;50.994;4.538;2023-05-10T06:16:55;13.30;99.90
15991;DHT22;8100;50.994;4.538;2023-05-10T06:19:43;13.20;99.90
15991;DHT22;8100;50.994;4.538;2023-05-10T06:22:31;13.20;99.90
15991;DHT22;8100;50.994;4.538;2023-05-10T06:25:18;13.20;99.90
15991;DHT22;8100;50.994;4.538;2023-05-10T06:28:05;13.30;99.90
15991;DHT22;8100;50.994;4.538;2023-05-10T06:30:53;13.30;99.90
15991;DHT22;8100;50.994;4.538;2023-05-10T06:33:40;13.30;99.90
15991;DHT22;8100;50.994;4.538;2023-05-10T06:36:29;13.30;99.90
15991;DHT22;8100;50.994;4.538;2023-05-10T06:39:16;13.40;99.90
15991;DHT22;8100;50.994;4.538;2023-05-10T06:42:04;13.50;99.90
15991;DHT22;8100;50.994;4.538;2023-05-10T06:44:51;13.50;99.90
15991;DHT22;8100;50.994;4.538;2023-05-10T06:47:39;13.50;99.90
15991;DHT22;8100;50.994;4.538;2023-05-10T06:50:26;13.70;99.90
15991;DHT22;8100;50.994;4.538;2023-05-10T06:53:15;13.60;99.90
15991;DHT22;8100;50.994;4.538;2023-05-10T06:56:03;13.60;99.90
15991;DHT22;8100;50.994;4.538;2023-05-10T06:58:50;13.60;99.90
15991;DHT22;8100;50.994;4.538;2023-05-10T07:01:37;13.60;99.90
15991;DHT22;8100;50.994;4.538;2023-05-10T07:04:24;13.70;99.90
15991;DHT22;8100;50.994;4.538;2023-05-10T07:07:13;13.60;99.90
15991;DHT22;8100;50.994;4.538;2023-05-10T07:10:01;13.60;99.90
15991;DHT22;8100;50.994;4.538;2023-05-10T07:12:49;13.60;99.90
15991;DHT22;8100;50.994;4.538;2023-05-10T07:15:36;13.80;99.90
15991;DHT22;8100;50.994;4.538;2023-05-10T07:18:24;13.70;99.90
15991;DHT22;8100;50.994;4.538;2023-05-10T07:21:11;13.70;99.90
15991;DHT22;8100;50.994;4.538;2023-05-10T07:23:58;13.60;99.90
15991;DHT22;8100;50.994;4.538;2023-05-10T07:26:48;13.50;99.90
15991;DHT22;8100;50.994;4.538;2023-05-10T07:29:35;13.50;99.90
15991;DHT22;8100;50.994;4.538;2023-05-10T07:32:23;13.60;99.90
15991;DHT22;8100;50.994;4.538;2023-05-10T07:35:10;13.60;99.90
15991;DHT22;8100;50.994;4.538;2023-05-10T07:37:57;13.70;99.90
15991;DHT22;8100;50.994;4.538;2023-05-10T07:40:44;13.50;99.90
15991;DHT22;8100;50.994;4.538;2023-05-10T07:43:33;13.50;99.90
15991;DHT22;8100;50.994;4.538;2023-05-10T07:46:20;13.40;99.90
15991;DHT22;8100;50.994;4.538;2023-05-10T07:49:08;13.30;99.90
15991;DHT22;8100;50.994;4.538;2023-05-10T07:51:55;13.10;99.90
15991;DHT22;8100;50.994;4.538;2023-05-10T07:54:42;13.20;99.90
15991;DHT22;8100;50.994;4.538;2023-05-10T07:57:30;13.20;99.90
15991;DHT22;8100;50.994;4.538;2023-05-10T08:00:20;13.30;99.90
15991;DHT22;8100;50.994;4.538;2023-05-10T08:03:07;13.30;99.90
15991;DHT22;8100;50.994;4.538;2023-05-10T08:05:54;13.50;99.90
15991;DHT22;8100;50.994;4.538;2023-05-10T08:08:41;13.50;99.90
15991;DHT22;8100;50.994;4.538;2023-05-10T08:11:29;13.50;99.90
15991;DHT22;8100;50.994;4.538;2023-05-10T08:14:16;13.60;99.90
15991;DHT22;8100;50.994;4.538;2023-05-10T08:17:05;13.70;99.90
15991;DHT22;8100;50.994;4.538;2023-05-10T08:19:53;13.60;99.90
15991;DHT22;8100;50.994;4.538;2023-05-10T08:22:41;13.60;99.90
15991;DHT22;8100;50.994;4.538;2023-05-10T08:25:29;13.60;99.90
15991;DHT22;8100;50.994;4.538;2023-05-10T08:28:17;13.70;99.90
15991;DHT22;8100;50.994;4.538;2023-05-10T08:31:05;13.80;99.90
15991;DHT22;8100;50.994;4.538;2023-05-10T08:33:53;14.00;99.90
15991;DHT22;8100;50.994;4.538;2023-05-10T08:36:41;14.00;99.90
15991;DHT22;8100;50.994;4.538;2023-05-10T08:39:28;13.90;99.90
15991;DHT22;8100;50.994;4.538;2023-05-10T08:42:19;14.10;99.90
15991;DHT22;8100;50.994;4.538;2023-05-10T08:45:09;14.10;99.90
15991;DHT22;8100;50.994;4.538;2023-05-10T08:47:57;14.30;99.90
15991;DHT22;8100;50.994;4.538;2023-05-10T08:50:46;14.50;99.90
15991;DHT22;8100;50.994;4.538;2023-05-10T08:53:35;14.70;99.90
15991;DHT22;8100;50.994;4.538;2023-05-10T08:56:23;14.50;99.90
15991;DHT22;8100;50.994;4.538;2023-05-10T08:59:11;14.10;99.90
15991;DHT22;8100;50.994;4.538;2023-05-10T09:02:00;13.80;99.90
15991;DHT22;8100;50.994;4.538;2023-05-10T09:04:48;13.60;99.90
15991;DHT22;8100;50.994;4.538;2023-05-10T09:07:37;13.60;99.90
15991;DHT22;8100;50.994;4.538;2023-05-10T09:10:25;13.80;99.90
15991;DHT22;8100;50.994;4.538;2023-05-10T09:13:14;14.00;99.90
15991;DHT22;8100;50.994;4.538;2023-05-10T09:16:02;14.20;99.90
15991;DHT22;8100;50.994;4.538;2023-05-10T09:18:50;14.40;99.90
15991;DHT22;8100;50.994;4.538;2023-05-10T09:21:37;14.40;99.90
15991;DHT22;8100;50.994;4.538;2023-05-10T09:24:26;14.00;99.90
15991;DHT22;8100;50.994;4.538;2023-05-10T09:27:14;14.00;99.90
15991;DHT22;8100;50.994;4.538;2023-05-10T09:30:01;14.10;99.90
15991;DHT22;8100;50.994;4.538;2023-05-10T09:32:49;14.20;99.90
15991;DHT22;8100;50.994;4.538;2023-05-10T09:35:37;14.10;99.90
15991;DHT22;8100;50.994;4.538;2023-05-10T09:38:26;14.30;99.90
15991;DHT22;8100;50.994;4.538;2023-05-10T09:41:18;14.40;99.90
15991;DHT22;8100;50.994;4.538;2023-05-10T09:44:07;14.50;99.90
15991;DHT22;8100;50.994;4.538;2023-05-10T09:46:54;14.60;99.90
15991;DHT22;8100;50.994;4.538;2023-05-10T09:49:42;14.60;99.90
15991;DHT22;8100;50.994;4.538;2023-05-10T09:52:30;14.60;99.90
15991;DHT22;8100;50.994;4.538;2023-05-10T09:55:19;14.60;99.90
15991;DHT22;8100;50.994;4.538;2023-05-10T09:58:09;14.70;99.90
15991;DHT22;8100;50.994;4.538;2023-05-10T10:00:56;14.40;99.90
15991;DHT22;8100;50.994;4.538;2023-05-10T10:03:44;14.50;99.90
15991;DHT22;8100;50.994;4.538;2023-05-10T10:06:38;14.60;99.90
15991;DHT22;8100;50.994;4.538;2023-05-10T10:09:26;14.50;99.90
15991;DHT22;8100;50.994;4.538;2023-05-10T10:12:13;14.40;99.90
15991;DHT22;8100;50.994;4.538;2023-05-10T10:15:03;14.30;99.90
15991;DHT22;8100;50.994;4.538;2023-05-10T10:17:52;14.20;99.90
15991;DHT22;8100;50.994;4.538;2023-05-10T10:20:40;14.20;99.90
15991;DHT22;8100;50.994;4.538;2023-05-10T10:23:27;14.10;99.90
15991;DHT22;8100;50.994;4.538;2023-05-10T10:26:15;14.20;99.90
15991;DHT22;8100;50.994;4.538;2023-05-10T10:29:14;14.20;99.90
15991;DHT22;8100;50.994;4.538;2023-05-10T10:32:11;14.00;99.90
15991;DHT22;8100;50.994;4.538;2023-05-10T10:35:05;13.90;99.90
15991;DHT22;8100;50.994;4.538;2023-05-10T10:37:53;13.90;99.90
15991;DHT22;8100;50.994;4.538;2023-05-10T10:40:40;13.90;99.90
15991;DHT22;8100;50.994;4.538;2023-05-10T10:43:29;13.90;99.90
15991;DHT22;8100;50.994;4.538;2023-05-10T10:46:17;14.00;99.90
15991;DHT22;8100;50.994;4.538;2023-05-10T10:49:10;14.30;99.90
15991;DHT22;8100;50.994;4.538;2023-05-10T10:52:14;14.20;99.90
15991;DHT22;8100;50.994;4.538;2023-05-10T10:55:04;14.50;99.90
15991;DHT22;8100;50.994;4.538;2023-05-10T10:57:53;14.50;99.90
15991;DHT22;8100;50.994;4.538;2023-05-10T11:00:46;14.40;99.90
15991;DHT22;8100;50.994;4.538;2023-05-10T11:03:33;14.50;99.90
15991;DHT22;8100;50.994;4.538;2023-05-10T11:06:30;14.40;99.90
15991;DHT22;8100;50.994;4.538;2023-05-10T11:09:19;14.30;99.90
15991;DHT22;8100;50.994;4.538;2023-05-10T11:12:08;14.30;99.90
15991;DHT22;8100;50.994;4.538;2023-05-10T11:14:57;14.60;99.90
15991;DHT22;8100;50.994;4.538;2023-05-10T11:17:45;14.80;99.90
15991;DHT22;8100;50.994;4.538;2023-05-10T11:20:39;15.00;99.90
15991;DHT22;8100;50.994;4.538;2023-05-10T11:23:32;15.00;99.90
15991;DHT22;8100;50.994;4.538;2023-05-10T11:26:19;15.00;99.90
15991;DHT22;8100;50.994;4.538;2023-05-10T11:29:09;14.60;99.90
15991;DHT22;8100;50.994;4.538;2023-05-10T11:31:57;14.70;99.90
15991;DHT22;8100;50.994;4.538;2023-05-10T11:34:47;14.60;99.90
15991;DHT22;8100;50.994;4.538;2023-05-10T11:37:35;14.40;99.90
15991;DHT22;8100;50.994;4.538;2023-05-10T11:40:23;14.30;99.90
15991;DHT22;8100;50.994;4.538;2023-05-10T11:43:12;14.20;99.90
15991;DHT22;8100;50.994;4.538;2023-05-10T11:45:59;14.30;99.90
15991;DHT22;8100;50.994;4.538;2023-05-10T11:48:48;14.50;99.90
15991;DHT22;8100;50.994;4.538;2023-05-10T11:51:36;14.60;99.90
15991;DHT22;8100;50.994;4.538;2023-05-10T11:54:25;14.40;99.90
15991;DHT22;8100;50.994;4.538;2023-05-10T11:57:13;14.50;99.90
15991;DHT22;8100;50.994;4.538;2023-05-10T12:00:01;14.70;99.90
15991;DHT22;8100;50.994;4.538;2023-05-10T12:02:49;14.80;99.90
15991;DHT22;8100;50.994;4.538;2023-05-10T12:05:37;14.60;99.90
15991;DHT22;8100;50.994;4.538;2023-05-10T12:08:28;14.50;99.90
15991;DHT22;8100;50.994;4.538;2023-05-10T12:11:16;14.40;99.90
15991;DHT22;8100;50.994;4.538;2023-05-10T12:14:05;14.50;99.90
15991;DHT22;8100;50.994;4.538;2023-05-10T12:16:53;14.70;99.90
15991;DHT22;8100;50.994;4.538;2023-05-10T12:19:41;14.90;99.90
15991;DHT22;8100;50.994;4.538;2023-05-10T12:22:29;15.10;99.90
15991;DHT22;8100;50.994;4.538;2023-05-10T12:25:17;15.10;99.90
15991;DHT22;8100;50.994;4.538;2023-05-10T12:28:06;15.40;99.90
15991;DHT22;8100;50.994;4.538;2023-05-10T12:30:54;15.20;99.90
15991;DHT22;8100;50.994;4.538;2023-05-10T12:33:43;15.40;99.90
15991;DHT22;8100;50.994;4.538;2023-05-10T12:36:31;15.50;99.60
15991;DHT22;8100;50.994;4.538;2023-05-10T12:39:18;15.60;99.90
15991;DHT22;8100;50.994;4.538;2023-05-10T12:42:06;16.00;99.90
15991;DHT22;8100;50.994;4.538;2023-05-10T12:44:55;15.90;64.40
15991;DHT22;8100;50.994;4.538;2023-05-10T12:47:44;16.00;19.70
15991;DHT22;8100;50.994;4.538;2023-05-10T12:50:31;16.10;72.80
15991;DHT22;8100;50.994;4.538;2023-05-10T12:53:18;16.20;18.80
15991;DHT22;8100;50.994;4.538;2023-05-10T12:56:06;16.40;1.00
15991;DHT22;8100;50.994;4.538;2023-05-10T12:58:54;16.20;1.00
15991;DHT22;8100;50.994;4.538;2023-05-10T13:01:41;16.30;5.70
15991;DHT22;8100;50.994;4.538;2023-05-10T13:04:30;16.60;5.50
15991;DHT22;8100;50.994;4.538;2023-05-10T13:07:17;16.60;1.00
15991;DHT22;8100;50.994;4.538;2023-05-10T13:10:05;17.00;1.00
15991;DHT22;8100;50.994;4.538;2023-05-10T13:12:53;17.10;1.00
15991;DHT22;8100;50.994;4.538;2023-05-10T13:15:40;17.10;1.00
15991;DHT22;8100;50.994;4.538;2023-05-10T13:18:28;17.30;1.00
15991;DHT22;8100;50.994;4.538;2023-05-10T13:21:16;17.20;1.00
15991;DHT22;8100;50.994;4.538;2023-05-10T13:24:04;17.20;1.00
15991;DHT22;8100;50.994;4.538;2023-05-10T13:26:51;17.20;99.90
15991;DHT22;8100;50.994;4.538;2023-05-10T13:29:38;17.30;99.90
15991;DHT22;8100;50.994;4.538;2023-05-10T13:32:26;17.70;1.00
15991;DHT22;8100;50.994;4.538;2023-05-10T13:35:13;18.00;1.00
15991;DHT22;8100;50.994;4.538;2023-05-10T13:38:02;17.90;1.00
15991;DHT22;8100;50.994;4.538;2023-05-10T13:40:50;18.00;1.00
15991;DHT22;8100;50.994;4.538;2023-05-10T13:43:38;18.00;1.00
15991;DHT22;8100;50.994;4.538;2023-05-10T13:46:25;18.40;1.00
15991;DHT22;8100;50.994;4.538;2023-05-10T13:49:13;18.40;1.00
15991;DHT22;8100;50.994;4.538;2023-05-10T13:52:00;18.30;1.00
15991;DHT22;8100;50.994;4.538;2023-05-10T13:54:53;18.00;1.00
15991;DHT22;8100;50.994;4.538;2023-05-10T13:57:41;18.90;1.00
15991;DHT22;8100;50.994;4.538;2023-05-10T14:00:29;18.60;1.00
15991;DHT22;8100;50.994;4.538;2023-05-10T14:03:16;18.60;99.90
15991;DHT22;8100;50.994;4.538;2023-05-10T14:06:03;18.30;99.90
15991;DHT22;8100;50.994;4.538;2023-05-10T14:08:53;18.20;1.00
15991;DHT22;8100;50.994;4.538;2023-05-10T14:11:41;18.10;99.90
15991;DHT22;8100;50.994;4.538;2023-05-10T14:14:30;18.10;99.90
15991;DHT22;8100;50.994;4.538;2023-05-10T14:17:18;18.10;99.90
15991;DHT22;8100;50.994;4.538;2023-05-10T14:20:06;18.00;99.90
15991;DHT22;8100;50.994;4.538;2023-05-10T14:22:54;18.00;99.90
15991;DHT22;8100;50.994;4.538;2023-05-10T14:25:41;17.80;1.00
15991;DHT22;8100;50.994;4.538;2023-05-10T14:28:30;17.60;1.00
15991;DHT22;8100;50.994;4.538;2023-05-10T14:31:18;17.60;1.00
15991;DHT22;8100;50.994;4.538;2023-05-10T14:34:06;17.40;1.00
15991;DHT22;8100;50.994;4.538;2023-05-10T14:36:53;17.20;1.00
15991;DHT22;8100;50.994;4.538;2023-05-10T14:39:41;17.00;1.00
15991;DHT22;8100;50.994;4.538;2023-05-10T14:42:28;16.70;1.00
15991;DHT22;8100;50.994;4.538;2023-05-10T14:45:17;16.70;65.60
15991;DHT22;8100;50.994;4.538;2023-05-10T14:48:04;16.60;1.00
15991;DHT22;8100;50.994;4.538;2023-05-10T14:50:53;16.50;1.00
15991;DHT22;8100;50.994;4.538;2023-05-10T14:53:40;16.50;1.00
15991;DHT22;8100;50.994;4.538;2023-05-10T14:56:27;16.60;43.10
15991;DHT22;8100;50.994;4.538;2023-05-10T14:59:15;16.80;1.00
15991;DHT22;8100;50.994;4.538;2023-05-10T15:02:03;16.80;1.00
15991;DHT22;8100;50.994;4.538;2023-05-10T15:04:51;16.60;1.00
15991;DHT22;8100;50.994;4.538;2023-05-10T15:07:38;16.80;1.00
15991;DHT22;8100;50.994;4.538;2023-05-10T15:10:26;16.70;1.00
15991;DHT22;8100;50.994;4.538;2023-05-10T15:13:13;16.70;99.90
15991;DHT22;8100;50.994;4.538;2023-05-10T15:16:00;16.50;7.10
15991;DHT22;8100;50.994;4.538;2023-05-10T15:18:49;16.20;99.90
15991;DHT22;8100;50.994;4.538;2023-05-10T15:21:36;16.20;99.90
15991;DHT22;8100;50.994;4.538;2023-05-10T15:24:24;16.00;99.90
15991;DHT22;8100;50.994;4.538;2023-05-10T15:27:12;16.10;99.90
15991;DHT22;8100;50.994;4.538;2023-05-10T15:29:59;16.10;99.90
15991;DHT22;8100;50.994;4.538;2023-05-10T15:32:47;16.10;99.90
15991;DHT22;8100;50.994;4.538;2023-05-10T15:35:36;16.10;99.90
15991;DHT22;8100;50.994;4.538;2023-05-10T15:38:25;16.20;99.90
15991;DHT22;8100;50.994;4.538;2023-05-10T15:41:12;16.20;99.90
15991;DHT22;8100;50.994;4.538;2023-05-10T15:44:00;16.20;99.90
15991;DHT22;8100;50.994;4.538;2023-05-10T15:46:47;16.20;99.90
15991;DHT22;8100;50.994;4.538;2023-05-10T15:49:34;16.20;99.90
15991;DHT22;8100;50.994;4.538;2023-05-10T15:52:23;16.30;1.00
15991;DHT22;8100;50.994;4.538;2023-05-10T15:55:10;16.20;99.90
15991;DHT22;8100;50.994;4.538;2023-05-10T15:57:58;16.40;1.00
15991;DHT22;8100;50.994;4.538;2023-05-10T16:00:45;16.20;99.90
15991;DHT22;8100;50.994;4.538;2023-05-10T16:03:33;16.00;1.00
15991;DHT22;8100;50.994;4.538;2023-05-10T16:06:20;15.90;1.00
15991;DHT22;8100;50.994;4.538;2023-05-10T16:09:09;15.90;1.00
15991;DHT22;8100;50.994;4.538;2023-05-10T16:11:56;15.90;1.00
15991;DHT22;8100;50.994;4.538;2023-05-10T16:14:44;15.80;1.00
15991;DHT22;8100;50.994;4.538;2023-05-10T16:17:31;15.70;1.00
15991;DHT22;8100;50.994;4.538;2023-05-10T16:20:18;15.60;1.00
15991;DHT22;8100;50.994;4.538;2023-05-10T16:23:06;15.60;5.60
15991;DHT22;8100;50.994;4.538;2023-05-10T16:25:55;15.60;97.90
15991;DHT22;8100;50.994;4.538;2023-05-10T16:28:42;15.40;55.60
15991;DHT22;8100;50.994;4.538;2023-05-10T16:31:30;15.30;54.90
15991;DHT22;8100;50.994;4.538;2023-05-10T16:34:17;15.20;47.60
15991;DHT22;8100;50.994;4.538;2023-05-10T16:37:09;15.10;92.50
15991;DHT22;8100;50.994;4.538;2023-05-10T16:39:56;15.00;99.90
15991;DHT22;8100;50.994;4.538;2023-05-10T16:42:45;15.00;99.90
15991;DHT22;8100;50.994;4.538;2023-05-10T16:45:32;15.10;99.90
15991;DHT22;8100;50.994;4.538;2023-05-10T16:48:19;15.00;99.90
15991;DHT22;8100;50.994;4.538;2023-05-10T16:51:07;15.00;99.90
15991;DHT22;8100;50.994;4.538;2023-05-10T16:53:54;15.00;99.90
15991;DHT22;8100;50.994;4.538;2023-05-10T16:56:42;15.10;99.90
15991;DHT22;8100;50.994;4.538;2023-05-10T16:59:30;15.10;99.90
15991;DHT22;8100;50.994;4.538;2023-05-10T17:02:18;15.30;99.90
15991;DHT22;8100;50.994;4.538;2023-05-10T17:05:06;15.40;99.90
15991;DHT22;8100;50.994;4.538;2023-05-10T17:07:53;15.60;99.90
15991;DHT22;8100;50.994;4.538;2023-05-10T17:10:41;15.70;78.90
15991;DHT22;8100;50.994;4.538;2023-05-10T17:13:28;15.60;59.50
15991;DHT22;8100;50.994;4.538;2023-05-10T17:16:17;15.50;66.20
15991;DHT22;8100;50.994;4.538;2023-05-10T17:19:05;15.30;69.30
15991;DHT22;8100;50.994;4.538;2023-05-10T17:21:53;15.10;77.20
15991;DHT22;8100;50.994;4.538;2023-05-10T17:24:40;15.10;70.60
15991;DHT22;8100;50.994;4.538;2023-05-10T17:27:27;14.90;28.80
15991;DHT22;8100;50.994;4.538;2023-05-10T17:30:15;14.90;36.50
15991;DHT22;8100;50.994;4.538;2023-05-10T17:33:08;15.00;60.00
15991;DHT22;8100;50.994;4.538;2023-05-10T17:35:56;15.00;60.30
15991;DHT22;8100;50.994;4.538;2023-05-10T17:38:44;14.90;58.20
15991;DHT22;8100;50.994;4.538;2023-05-10T17:41:31;14.80;87.70
15991;DHT22;8100;50.994;4.538;2023-05-10T17:44:19;14.80;82.40
15991;DHT22;8100;50.994;4.538;2023-05-10T17:47:06;14.80;99.90
15991;DHT22;8100;50.994;4.538;2023-05-10T17:49:55;15.10;99.90
15991;DHT22;8100;50.994;4.538;2023-05-10T17:52:42;15.30;85.80
15991;DHT22;8100;50.994;4.538;2023-05-10T17:55:29;15.40;76.50
15991;DHT22;8100;50.994;4.538;2023-05-10T17:58:18;15.50;71.70
15991;DHT22;8100;50.994;4.538;2023-05-10T18:01:05;15.40;51.50
15991;DHT22;8100;50.994;4.538;2023-05-10T18:03:53;15.30;54.70